Time;durP1;ratioP1;P1;durP2;ratioP2;P2;SDS_P1;SDS_P2;PMS_P1;PMS_P2;Temp;Humidity;BMP_temperature;BMP_pressure;BME280_temperature;BME280_humidity;BME280_pressure;Samples;Min_cycle;Max_cycle;Signal;HPM_P1;HPM_P2
2022/11/13 00:00:22;;;;;;;10.82;6.65;;;11.20;99.90;;;;;;10443840;28;20033;-60
2022/11/13 00:05:23;;;;;;;11.27;6.50;;;11.20;99.90;;;;;;10446806;28;20726;-60
2022/11/13 00:10:24;;;;;;;11.85;6.25;;;11.20;99.90;;;;;;10402029;28;20033;-60
2022/11/13 00:15:25;;;;;;;10.77;6.68;;;11.20;99.90;;;;;;10429842;28;20046;-61
2022/11/13 00:20:25;;;;;;;11.88;7.03;;;11.20;99.90;;;;;;10418691;28;20578;-64
2022/11/13 00:25:26;;;;;;;11.52;6.90;;;11.20;99.90;;;;;;10419494;28;20024;-60
2022/11/13 00:30:27;;;;;;;11.73;6.93;;;11.20;99.90;;;;;;10455743;28;20019;-61
2022/11/13 00:35:27;;;;;;;12.07;7.00;;;11.20;99.90;;;;;;10431349;28;20029;-61
2022/11/13 00:40:28;;;;;;;11.60;6.80;;;11.20;99.80;;;;;;10446195;28;20152;-60
2022/11/13 00:45:29;;;;;;;12.52;7.22;;;11.20;99.80;;;;;;10433335;28;20028;-62
2022/11/13 00:50:29;;;;;;;9.95;6.28;;;11.10;99.80;;;;;;10435969;28;20025;-60
2022/11/13 00:55:30;;;;;;;12.07;6.50;;;11.10;99.80;;;;;;10440791;28;20041;-60
2022/11/13 01:00:31;;;;;;;10.43;6.60;;;11.30;99.80;;;;;;10428855;28;20208;-60
2022/11/13 01:05:36;;;;;;;9.63;6.63;;;11.10;99.80;;;;;;10457211;28;20033;-61
2022/11/13 01:10:47;;;;;;;10.93;6.47;;;11.10;99.80;;;;;;10423126;28;20013;-61
2022/11/13 01:15:48;;;;;;;9.80;6.35;;;11.10;99.70;;;;;;10432356;28;20051;-60
2022/11/13 01:20:48;;;;;;;10.35;6.63;;;11.10;99.80;;;;;;10439663;28;20033;-60
2022/11/13 01:25:49;;;;;;;9.65;6.55;;;11.10;99.70;;;;;;10428744;28;20481;-60
2022/11/13 01:30:50;;;;;;;9.07;5.93;;;11.10;99.70;;;;;;10434140;28;20033;-60
2022/11/13 01:35:50;;;;;;;9.32;6.20;;;11.10;99.70;;;;;;10447586;28;20037;-60
2022/11/13 01:40:51;;;;;;;9.50;5.78;;;11.10;99.70;;;;;;10449101;28;20017;-61
2022/11/13 01:46:29;;;;;;;9.35;5.90;;;11.10;99.70;;;;;;10420170;28;20124;-61
2022/11/13 01:51:35;;;;;;;11.63;6.60;;;11.10;99.60;;;;;;10444635;28;20029;-60
2022/11/13 01:56:36;;;;;;;10.20;6.43;;;11.00;99.60;;;;;;10429416;28;20038;-61
2022/11/13 02:01:37;;;;;;;9.73;5.63;;;11.00;99.60;;;;;;10426905;28;20169;-60
2022/11/13 02:06:51;;;;;;;10.52;6.20;;;11.10;99.90;;;;;;10455801;28;20179;-61
2022/11/13 02:11:53;;;;;;;8.32;5.97;;;11.00;99.60;;;;;;10450428;28;20041;-60
2022/11/13 02:17:08;;;;;;;9.10;5.57;;;11.00;99.60;;;;;;10445714;28;20040;-61
2022/11/13 02:22:44;;;;;;;10.05;6.07;;;11.10;99.60;;;;;;10418212;28;20032;-61
2022/11/13 02:27:49;;;;;;;9.85;6.15;;;11.00;99.50;;;;;;10445485;28;20353;-60
2022/11/13 02:32:52;;;;;;;9.95;5.88;;;11.00;99.60;;;;;;10445573;28;20559;-62
2022/11/13 02:37:57;;;;;;;9.13;5.68;;;11.10;99.60;;;;;;10447777;28;20151;-61
2022/11/13 02:42:57;;;;;;;9.88;6.00;;;11.00;99.60;;;;;;10456085;28;20032;-60
2022/11/13 02:47:59;;;;;;;6.95;5.55;;;11.00;99.60;;;;;;10459576;28;20029;-61
2022/11/13 02:53:00;;;;;;;9.07;5.63;;;11.00;99.60;;;;;;10444452;28;20414;-61
2022/11/13 02:58:01;;;;;;;10.15;5.70;;;10.90;99.50;;;;;;10458569;28;20017;-61
2022/11/13 03:03:02;;;;;;;8.70;5.45;;;11.00;99.50;;;;;;10443811;28;20509;-60
2022/11/13 03:08:04;;;;;;;9.20;5.75;;;10.90;99.50;;;;;;10446463;28;20036;-60
2022/11/13 03:13:05;;;;;;;9.65;5.88;;;10.90;99.50;;;;;;10453973;28;20060;-61
2022/11/13 03:18:07;;;;;;;8.80;5.57;;;10.90;99.50;;;;;;10443564;28;20428;-60
2022/11/13 03:23:07;;;;;;;9.77;6.10;;;10.90;99.50;;;;;;10429714;28;20071;-61
2022/11/13 03:28:08;;;;;;;10.80;6.18;;;10.90;99.50;;;;;;10416514;28;20067;-61
2022/11/13 03:33:09;;;;;;;8.32;5.18;;;11.30;99.60;;;;;;10428374;28;20490;-61
2022/11/13 03:38:09;;;;;;;7.95;5.45;;;10.90;99.70;;;;;;10426543;28;20021;-61
2022/11/13 03:43:10;;;;;;;9.20;5.57;;;10.90;99.40;;;;;;10431585;28;20025;-61
2022/11/13 03:48:12;;;;;;;10.27;5.40;;;10.90;99.40;;;;;;10448390;28;20122;-61
2022/11/13 03:53:13;;;;;;;9.25;5.60;;;10.90;99.40;;;;;;10442972;28;20368;-60
2022/11/13 03:58:14;;;;;;;7.60;4.90;;;11.00;99.50;;;;;;10442835;28;20029;-60
2022/11/13 04:03:15;;;;;;;8.75;5.45;;;10.80;99.40;;;;;;10456513;28;20113;-60
2022/11/13 04:08:16;;;;;;;8.75;5.15;;;10.80;99.40;;;;;;10448762;28;20021;-60
2022/11/13 04:13:17;;;;;;;7.90;5.40;;;10.80;99.40;;;;;;10444145;28;20145;-60
2022/11/13 04:18:18;;;;;;;9.52;5.75;;;10.80;99.40;;;;;;10450742;28;20044;-60
2022/11/13 04:23:19;;;;;;;8.48;5.82;;;10.80;99.40;;;;;;10436457;28;20036;-60
2022/11/13 04:28:20;;;;;;;8.65;5.57;;;10.80;99.40;;;;;;10421886;28;20031;-60
2022/11/13 04:33:20;;;;;;;8.48;5.18;;;10.80;99.40;;;;;;10422957;28;20171;-60
2022/11/13 04:38:21;;;;;;;8.38;5.30;;;10.80;99.40;;;;;;10449672;28;20700;-60
2022/11/13 04:43:22;;;;;;;8.68;5.32;;;10.80;99.40;;;;;;10450519;28;20032;-60
2022/11/13 04:48:22;;;;;;;10.27;5.72;;;10.80;99.40;;;;;;10445278;28;20032;-60
2022/11/13 04:53:23;;;;;;;9.13;5.38;;;10.70;99.30;;;;;;10424276;28;20469;-59
2022/11/13 04:58:24;;;;;;;8.13;5.68;;;10.70;99.30;;;;;;10432134;28;20080;-60
2022/11/13 05:03:25;;;;;;;8.93;5.63;;;10.80;99.30;;;;;;10456951;28;20025;-60
2022/11/13 05:08:25;;;;;;;6.68;4.97;;;10.70;99.30;;;;;;10461358;28;20029;-60
2022/11/13 05:13:29;;;;;;;8.30;5.57;;;10.70;99.30;;;;;;10435645;28;20025;-60
2022/11/13 05:18:30;;;;;;;9.68;5.20;;;10.70;99.30;;;;;;10435438;28;20033;-60
2022/11/13 05:23:32;;;;;;;7.75;5.47;;;10.70;99.30;;;;;;10423636;28;20021;-60
2022/11/13 05:28:33;;;;;;;10.02;5.72;;;10.70;99.30;;;;;;10429719;28;20112;-60
2022/11/13 05:33:35;;;;;;;8.23;5.40;;;10.60;99.30;;;;;;10434053;28;20510;-60
2022/11/13 05:38:36;;;;;;;9.38;5.00;;;10.60;99.20;;;;;;10454562;28;20040;-60
2022/11/13 05:43:38;;;;;;;7.50;5.40;;;10.70;99.20;;;;;;10447356;28;20036;-60
2022/11/13 05:48:39;;;;;;;8.70;5.53;;;10.60;99.20;;;;;;10430439;28;20029;-60
2022/11/13 05:53:41;;;;;;;8.35;5.13;;;10.60;99.20;;;;;;10419994;28;20041;-60
2022/11/13 05:58:42;;;;;;;7.40;5.22;;;10.60;99.20;;;;;;10420766;28;20032;-60
2022/11/13 06:03:44;;;;;;;7.88;5.13;;;10.60;99.20;;;;;;10427788;28;20491;-60
2022/11/13 06:08:45;;;;;;;9.13;5.57;;;10.60;99.20;;;;;;10435045;28;20138;-60
2022/11/13 06:13:47;;;;;;;8.38;5.45;;;10.60;99.10;;;;;;10449128;28;20511;-60
2022/11/13 06:18:48;;;;;;;8.88;5.25;;;10.60;99.10;;;;;;10443207;28;20127;-62
2022/11/13 06:23:49;;;;;;;7.22;5.30;;;10.50;99.10;;;;;;10414460;28;20020;-60
2022/11/13 06:28:50;;;;;;;8.55;5.07;;;10.60;99.10;;;;;;10444562;28;20028;-60
2022/11/13 06:33:51;;;;;;;8.77;5.32;;;10.50;99.10;;;;;;10446382;28;20041;-60
2022/11/13 06:38:52;;;;;;;7.45;4.32;;;10.50;99.10;;;;;;10451828;28;20492;-60
2022/11/13 06:43:57;;;;;;;7.68;5.40;;;10.50;99.10;;;;;;10448250;28;20070;-59
2022/11/13 06:48:58;;;;;;;8.50;4.82;;;10.50;99.10;;;;;;10469698;28;20033;-61
2022/11/13 06:53:59;;;;;;;7.85;5.07;;;10.50;99.10;;;;;;10431284;28;20103;-60
2022/11/13 06:58:59;;;;;;;9.05;5.03;;;10.50;99.00;;;;;;10416095;28;20040;-60
2022/11/13 07:04:00;;;;;;;7.28;4.82;;;10.50;99.00;;;;;;10402893;28;20526;-60
2022/11/13 07:09:01;;;;;;;8.07;5.00;;;10.50;99.00;;;;;;10349851;28;20059;-60
2022/11/13 07:14:02;;;;;;;7.15;5.00;;;10.50;99.00;;;;;;10353863;28;20478;-60
2022/11/13 07:19:03;;;;;;;7.75;5.18;;;10.50;99.00;;;;;;10372086;28;20087;-61
2022/11/13 07:24:04;;;;;;;7.30;5.13;;;10.50;99.00;;;;;;10344690;28;20072;-60
2022/11/13 07:29:04;;;;;;;8.57;5.28;;;10.40;98.90;;;;;;10329828;28;20025;-60
2022/11/13 07:34:05;;;;;;;8.70;4.95;;;10.50;98.90;;;;;;10334059;28;20041;-60
2022/11/13 07:39:06;;;;;;;7.05;4.97;;;9.90;98.80;;;;;;10339165;28;20025;-60
2022/11/13 07:44:07;;;;;;;7.10;5.15;;;10.50;98.90;;;;;;10344823;28;20263;-60
2022/11/13 07:49:08;;;;;;;6.63;5.07;;;10.50;98.90;;;;;;10355408;28;20349;-60
2022/11/13 07:54:10;;;;;;;8.40;5.18;;;10.50;98.80;;;;;;10374815;28;20427;-60
2022/11/13 07:59:11;;;;;;;8.30;5.22;;;10.50;98.80;;;;;;10349786;28;20345;-60
2022/11/13 08:04:11;;;;;;;8.48;5.45;;;10.50;98.80;;;;;;10356211;28;20926;-60
2022/11/13 08:09:12;;;;;;;8.13;4.75;;;10.50;98.80;;;;;;10350167;28;20364;-60
2022/11/13 08:14:13;;;;;;;8.25;5.13;;;10.60;98.80;;;;;;10366494;28;20051;-61
2022/11/13 08:19:14;;;;;;;9.27;5.00;;;10.60;98.70;;;;;;10360195;28;20040;-60
2022/11/13 08:24:15;;;;;;;8.00;5.40;;;10.60;98.70;;;;;;10342113;28;20444;-60
2022/11/13 08:29:16;;;;;;;8.45;5.07;;;10.60;98.70;;;;;;10359444;28;20055;-60
2022/11/13 08:34:16;;;;;;;9.07;5.55;;;10.60;98.70;;;;;;10365300;28;20531;-60
2022/11/13 08:39:17;;;;;;;8.38;5.40;;;11.20;98.80;;;;;;10358739;28;20531;-60
2022/11/13 08:44:18;;;;;;;8.65;5.45;;;10.80;98.60;;;;;;10340145;28;20029;-60
2022/11/13 08:49:19;;;;;;;7.32;4.85;;;11.00;98.60;;;;;;10352984;28;20146;-60
2022/11/13 08:54:19;;;;;;;8.13;5.13;;;10.90;98.50;;;;;;10366747;28;20032;-61
2022/11/13 08:59:22;;;;;;;7.45;4.80;;;11.00;98.40;;;;;;10354649;28;20560;-61
2022/11/13 09:04:26;;;;;;;8.63;4.93;;;11.10;98.40;;;;;;10359560;28;20045;-61
2022/11/13 09:09:27;;;;;;;7.70;5.13;;;11.10;98.40;;;;;;10355415;28;20477;-61
2022/11/13 09:14:27;;;;;;;6.70;4.97;;;11.10;98.40;;;;;;10358388;28;20041;-63
2022/11/13 09:19:28;;;;;;;7.97;4.97;;;11.10;98.40;;;;;;10371133;28;20757;-60
2022/11/13 09:24:29;;;;;;;8.57;5.10;;;11.10;98.40;;;;;;10351970;28;20128;-60
2022/11/13 09:29:30;;;;;;;6.95;4.68;;;11.20;98.50;;;;;;10356747;28;20501;-62
2022/11/13 09:34:32;;;;;;;8.25;5.18;;;11.20;98.50;;;;;;10358564;28;20499;-61
2022/11/13 09:39:33;;;;;;;8.73;4.60;;;11.20;98.50;;;;;;10358234;28;20232;-61
2022/11/13 09:44:48;;;;;;;9.13;5.72;;;11.20;98.50;;;;;;10358143;28;20040;-60
2022/11/13 09:49:55;;;;;;;8.38;4.88;;;11.20;98.50;;;;;;10350576;28;20251;-62
2022/11/13 09:54:57;;;;;;;8.55;5.13;;;11.20;98.50;;;;;;10359826;28;20702;-64
2022/11/13 10:00:14;;;;;;;6.93;4.30;;;11.20;98.50;;;;;;10363587;28;20869;-60
2022/11/13 10:05:35;;;;;;;7.55;4.88;;;11.70;98.60;;;;;;10364516;28;20599;-60
2022/11/13 10:10:50;;;;;;;6.85;4.43;;;11.30;98.40;;;;;;10362710;28;20468;-60
2022/11/13 10:15:56;;;;;;;7.38;4.80;;;11.30;98.40;;;;;;10355129;28;20360;-60
2022/11/13 10:21:19;;;;;;;5.88;4.47;;;11.30;98.40;;;;;;10350409;28;20067;-61
2022/11/13 10:26:23;;;;;;;6.68;4.38;;;11.40;98.40;;;;;;10356964;28;20479;-61
2022/11/13 10:31:24;;;;;;;6.30;4.40;;;11.40;98.40;;;;;;10370396;28;20028;-60
2022/11/13 10:36:49;;;;;;;7.20;4.22;;;11.50;98.40;;;;;;10364094;28;20532;-60
2022/11/13 10:41:52;;;;;;;7.75;4.70;;;11.50;98.30;;;;;;10361179;28;20041;-60
2022/11/13 10:47:15;;;;;;;6.20;4.13;;;12.10;98.50;;;;;;10376502;28;20643;-61
2022/11/13 10:52:27;;;;;;;6.47;3.75;;;11.60;98.30;;;;;;10362512;28;20075;-60
2022/11/13 10:57:32;;;;;;;6.10;4.32;;;11.60;98.30;;;;;;10356181;28;20120;-61
2022/11/13 11:02:34;;;;;;;5.85;3.92;;;11.60;98.30;;;;;;10349394;28;20036;-61
2022/11/13 11:07:40;;;;;;;5.50;3.75;;;11.70;98.30;;;;;;10351183;28;20491;-61
2022/11/13 11:12:41;;;;;;;6.10;3.90;;;11.70;98.20;;;;;;10357252;28;20555;-61
2022/11/13 11:17:53;;;;;;;6.57;4.20;;;11.70;98.20;;;;;;10352403;28;20594;-60
2022/11/13 11:23:01;;;;;;;6.28;4.15;;;11.80;98.20;;;;;;10356164;28;20037;-62
2022/11/13 11:28:11;;;;;;;6.50;3.92;;;11.80;98.20;;;;;;10358185;28;20021;-61
2022/11/13 11:33:15;;;;;;;5.90;3.90;;;11.90;98.20;;;;;;10360806;28;20826;-60
2022/11/13 11:38:32;;;;;;;5.25;3.53;;;12.00;98.20;;;;;;10356602;28;20390;-61
2022/11/13 11:43:44;;;;;;;5.63;3.67;;;11.90;98.10;;;;;;10347232;28;20028;-61
2022/11/13 11:48:45;;;;;;;5.35;3.38;;;12.00;98.10;;;;;;10327423;28;20557;-63
2022/11/13 11:54:04;;;;;;;6.63;3.63;;;12.00;98.10;;;;;;10341358;28;20037;-61
2022/11/13 11:59:21;;;;;;;5.25;3.60;;;12.00;98.10;;;;;;10362156;28;20047;-61
2022/11/13 12:04:56;;;;;;;6.90;4.13;;;12.00;98.10;;;;;;10353601;28;20503;-60
2022/11/13 12:10:32;;;;;;;6.35;4.15;;;12.00;98.10;;;;;;10352115;28;20037;-60
2022/11/13 12:15:47;;;;;;;6.07;3.55;;;12.00;98.00;;;;;;10280922;28;20045;-63
2022/11/13 12:21:21;;;;;;;5.32;3.40;;;12.10;98.10;;;;;;10350645;28;20535;-60
2022/11/13 12:26:46;;;;;;;7.85;4.20;;;12.10;98.10;;;;;;10355445;28;20028;-61
2022/11/13 12:32:00;;;;;;;5.20;3.50;;;12.10;98.00;;;;;;10322571;28;20295;-61
2022/11/13 12:37:06;;;;;;;5.43;3.65;;;12.10;98.10;;;;;;10355829;28;20564;-60
2022/11/13 12:42:18;;;;;;;7.60;4.07;;;12.10;98.10;;;;;;10363003;28;20142;-62
2022/11/13 12:47:19;;;;;;;6.13;3.33;;;12.10;98.10;;;;;;10368926;28;20102;-64
2022/11/13 12:52:23;;;;;;;8.27;3.47;;;12.10;98.10;;;;;;10368898;28;20101;-63
2022/11/13 12:57:25;;;;;;;5.50;3.40;;;12.10;98.20;;;;;;10374254;28;20041;-61
2022/11/13 13:02:49;;;;;;;6.03;3.50;;;12.20;98.20;;;;;;10366218;28;20124;-61
2022/11/13 13:08:05;;;;;;;4.50;3.38;;;12.20;98.10;;;;;;10331238;28;20471;-62
2022/11/13 13:13:34;;;;;;;4.13;3.17;;;12.20;98.10;;;;;;10364785;28;20688;-62
2022/11/13 13:18:37;;;;;;;4.70;3.28;;;12.20;98.20;;;;;;10355794;28;20531;-62
2022/11/13 13:23:49;;;;;;;5.18;3.30;;;12.20;98.20;;;;;;10361763;28;20029;-61
2022/11/13 13:28:53;;;;;;;4.05;3.15;;;12.20;98.30;;;;;;10362812;28;20500;-62
2022/11/13 13:34:13;;;;;;;4.75;3.40;;;12.20;98.40;;;;;;10358032;28;20041;-60
2022/11/13 13:39:48;;;;;;;4.78;3.58;;;12.20;98.30;;;;;;10358147;28;20021;-61
2022/11/13 13:45:17;;;;;;;5.53;3.40;;;12.30;98.30;;;;;;10358360;28;20036;-61
2022/11/13 13:50:28;;;;;;;4.45;3.20;;;12.30;98.30;;;;;;10359808;28;20101;-65
2022/11/13 13:55:45;;;;;;;4.55;3.25;;;12.30;98.30;;;;;;10360421;28;20498;-60
2022/11/13 14:00:59;;;;;;;5.40;3.72;;;12.40;98.20;;;;;;10363139;28;20040;-61
2022/11/13 14:06:22;;;;;;;4.03;2.70;;;12.50;98.20;;;;;;10354398;28;20039;-60
2022/11/13 14:11:28;;;;;;;5.70;3.13;;;12.50;98.10;;;;;;10361029;28;20530;-61
2022/11/13 14:16:28;;;;;;;4.25;3.08;;;12.50;98.20;;;;;;10356952;28;20637;-61
2022/11/13 14:21:29;;;;;;;3.88;3.05;;;12.50;98.20;;;;;;10362584;28;20025;-61
2022/11/13 14:26:30;;;;;;;5.03;2.97;;;12.50;98.20;;;;;;10354622;28;20184;-60
2022/11/13 14:31:34;;;;;;;4.53;3.10;;;12.50;98.20;;;;;;10358747;28;20121;-61
2022/11/13 14:36:36;;;;;;;3.92;2.80;;;12.50;98.30;;;;;;10355365;28;20082;-61
2022/11/13 14:41:46;;;;;;;4.95;2.90;;;12.50;98.30;;;;;;10360636;28;20021;-61
2022/11/13 14:46:58;;;;;;;5.72;2.80;;;12.50;98.40;;;;;;10368010;28;20025;-61
2022/11/13 14:52:00;;;;;;;5.43;3.15;;;12.40;98.50;;;;;;10365891;28;20115;-62
2022/11/13 14:57:10;;;;;;;4.43;2.95;;;12.40;98.60;;;;;;10360772;28;20143;-61
2022/11/13 15:02:12;;;;;;;5.00;3.03;;;12.40;98.60;;;;;;10344235;28;20266;-61
2022/11/13 15:07:29;;;;;;;3.63;2.72;;;12.40;98.70;;;;;;10359721;28;20425;-62
2022/11/13 15:12:30;;;;;;;3.83;2.90;;;12.30;98.90;;;;;;10355581;28;20013;-62
2022/11/13 15:17:31;;;;;;;4.32;3.42;;;12.30;98.80;;;;;;10331894;28;20489;-62
2022/11/13 15:22:32;;;;;;;4.38;2.72;;;12.30;98.80;;;;;;10361395;28;20021;-62
2022/11/13 15:27:34;;;;;;;3.60;2.55;;;12.30;98.90;;;;;;10365012;28;20398;-62
2022/11/13 15:32:35;;;;;;;4.20;2.88;;;12.30;98.90;;;;;;10353030;28;20437;-62
2022/11/13 15:37:36;;;;;;;3.28;2.55;;;12.20;98.90;;;;;;10362179;28;20032;-62
2022/11/13 15:42:37;;;;;;;4.85;3.10;;;12.50;99.30;;;;;;10354787;28;20151;-62
2022/11/13 15:47:37;;;;;;;3.85;2.63;;;12.20;99.00;;;;;;10359963;28;20398;-62
2022/11/13 15:52:41;;;;;;;3.95;2.42;;;12.20;99.10;;;;;;10356427;28;20556;-63
2022/11/13 15:57:41;;;;;;;4.55;2.70;;;12.10;99.10;;;;;;10340972;28;20653;-62
2022/11/13 16:02:42;;;;;;;3.95;2.83;;;12.10;99.20;;;;;;10370885;28;20219;-62
2022/11/13 16:07:43;;;;;;;4.10;2.95;;;12.10;99.20;;;;;;10359438;28;20140;-62
2022/11/13 16:12:44;;;;;;;4.00;2.80;;;12.40;99.30;;;;;;10356523;28;20151;-59
2022/11/13 16:17:54;;;;;;;4.28;2.85;;;12.10;99.30;;;;;;10354389;28;20432;-61
2022/11/13 16:22:55;;;;;;;3.75;2.70;;;12.00;99.20;;;;;;10437451;28;20031;-61
2022/11/13 16:27:55;;;;;;;4.63;2.60;;;12.00;99.30;;;;;;10438462;28;20078;-61
2022/11/13 16:32:56;;;;;;;4.18;2.75;;;12.00;99.30;;;;;;10431750;28;20017;-60
2022/11/13 16:37:57;;;;;;;3.97;2.80;;;12.00;99.30;;;;;;10440052;28;20128;-60
2022/11/13 16:42:58;;;;;;;4.57;3.03;;;12.00;99.30;;;;;;10439151;28;20067;-60
2022/11/13 16:47:58;;;;;;;4.82;3.40;;;12.00;99.30;;;;;;10441755;28;20559;-61
2022/11/13 16:53:00;;;;;;;5.20;2.92;;;11.90;99.30;;;;;;10440791;28;20409;-60
2022/11/13 16:58:01;;;;;;;3.65;2.60;;;12.00;99.30;;;;;;10439964;28;20095;-60
2022/11/13 17:03:01;;;;;;;6.22;3.00;;;12.00;99.30;;;;;;10441417;28;20022;-60
2022/11/13 17:08:02;;;;;;;5.28;2.90;;;11.90;99.30;;;;;;10440668;28;20032;-60
2022/11/13 17:13:03;;;;;;;5.38;3.13;;;11.90;99.30;;;;;;10440193;28;20098;-62
2022/11/13 17:18:03;;;;;;;6.10;3.42;;;11.90;99.60;;;;;;10439220;28;20064;-61
2022/11/13 17:23:04;;;;;;;5.18;3.40;;;11.90;99.40;;;;;;10443984;28;20032;-61
2022/11/13 17:28:05;;;;;;;5.22;3.13;;;12.00;99.70;;;;;;10451292;28;20049;-62
2022/11/13 17:33:05;;;;;;;6.43;3.42;;;11.90;99.30;;;;;;10452133;28;20049;-62
2022/11/13 17:38:06;;;;;;;4.93;3.10;;;11.90;99.30;;;;;;10452811;28;20562;-60
2022/11/13 17:43:07;;;;;;;6.43;3.38;;;11.90;99.30;;;;;;10446246;28;20090;-60
2022/11/13 17:48:08;;;;;;;5.35;3.58;;;11.90;99.30;;;;;;10459061;28;20017;-60
2022/11/13 17:53:08;;;;;;;5.72;3.25;;;11.80;99.30;;;;;;10460040;28;20483;-60
2022/11/13 17:58:09;;;;;;;5.50;3.80;;;11.80;99.30;;;;;;10459891;28;20098;-62
2022/11/13 18:03:10;;;;;;;6.10;3.67;;;11.80;99.30;;;;;;10448946;28;20028;-60
2022/11/13 18:08:11;;;;;;;5.97;4.00;;;11.90;99.30;;;;;;10448871;28;20496;-60
2022/11/13 18:13:12;;;;;;;6.70;3.90;;;11.80;99.30;;;;;;10454905;28;20009;-61
2022/11/13 18:18:12;;;;;;;6.65;3.92;;;11.70;99.30;;;;;;10459574;28;20042;-60
2022/11/13 18:23:14;;;;;;;6.63;3.60;;;11.80;99.30;;;;;;10446007;28;20032;-60
2022/11/13 18:28:16;;;;;;;4.95;3.60;;;11.70;99.30;;;;;;10446091;28;20013;-61
2022/11/13 18:33:17;;;;;;;6.15;3.67;;;11.70;99.30;;;;;;10446665;28;20120;-60
2022/11/13 18:38:18;;;;;;;5.63;3.95;;;11.80;99.30;;;;;;10436658;28;20041;-60
2022/11/13 18:43:18;;;;;;;8.05;4.82;;;11.70;99.50;;;;;;10445248;28;20486;-61
2022/11/13 18:48:19;;;;;;;6.88;4.07;;;11.70;99.30;;;;;;10450104;28;20452;-60
2022/11/13 18:53:20;;;;;;;7.20;4.47;;;11.70;99.30;;;;;;10425888;28;20025;-60
2022/11/13 18:58:20;;;;;;;5.93;3.80;;;11.70;99.30;;;;;;10435041;28;20037;-61
2022/11/13 19:03:22;;;;;;;7.10;4.43;;;11.70;99.30;;;;;;10433530;28;20132;-60
2022/11/13 19:08:23;;;;;;;6.68;4.32;;;11.70;99.30;;;;;;10421508;28;20028;-59
2022/11/13 19:13:26;;;;;;;6.85;4.38;;;11.70;99.30;;;;;;10417719;28;20034;-59
2022/11/13 19:18:26;;;;;;;7.90;4.22;;;11.60;99.30;;;;;;10422815;28;20049;-59
2022/11/13 19:23:27;;;;;;;7.25;4.80;;;11.60;99.20;;;;;;10453621;28;20021;-59
2022/11/13 19:28:28;;;;;;;6.80;4.72;;;11.60;99.30;;;;;;10455565;28;20074;-61
2022/11/13 19:33:29;;;;;;;7.95;4.78;;;11.60;99.20;;;;;;10452338;28;20585;-60
2022/11/13 19:38:30;;;;;;;8.25;4.90;;;11.50;99.20;;;;;;10452119;28;20025;-60
2022/11/13 19:43:32;;;;;;;7.97;4.68;;;11.50;99.20;;;;;;10425928;28;20029;-60
2022/11/13 19:48:33;;;;;;;8.77;5.35;;;11.50;99.20;;;;;;10441946;28;20082;-60
2022/11/13 19:53:35;;;;;;;9.50;5.20;;;11.50;99.20;;;;;;10442166;28;20063;-60
2022/11/13 19:58:36;;;;;;;8.00;4.88;;;11.50;99.20;;;;;;10450619;28;20324;-60
2022/11/13 20:03:37;;;;;;;10.00;5.53;;;11.40;99.20;;;;;;10458939;28;20058;-60
2022/11/13 20:08:38;;;;;;;9.52;5.63;;;11.40;99.20;;;;;;10459432;28;20468;-60
2022/11/13 20:13:40;;;;;;;10.48;6.00;;;11.40;99.20;;;;;;10452766;28;20124;-60
2022/11/13 20:18:42;;;;;;;9.23;6.03;;;11.30;99.10;;;;;;10441433;28;20076;-60
2022/11/13 20:23:43;;;;;;;8.18;5.65;;;11.30;99.10;;;;;;10447651;28;20037;-60
2022/11/13 20:28:44;;;;;;;9.48;5.80;;;11.30;99.10;;;;;;10454725;28;20029;-60
2022/11/13 20:33:46;;;;;;;10.05;6.18;;;11.30;99.10;;;;;;10460734;28;20279;-60
2022/11/13 20:38:52;;;;;;;9.88;5.90;;;11.30;99.10;;;;;;10458921;28;20029;-61
2022/11/13 20:43:55;;;;;;;10.60;5.68;;;11.30;99.10;;;;;;10462919;28;20694;-60
2022/11/13 20:48:56;;;;;;;9.30;6.30;;;11.30;99.10;;;;;;10450356;28;20098;-60
2022/11/13 20:53:57;;;;;;;10.18;6.15;;;11.20;99.10;;;;;;10459113;28;20094;-60
2022/11/13 20:58:57;;;;;;;11.80;6.57;;;11.20;99.10;;;;;;10467431;28;20089;-60
2022/11/13 21:03:58;;;;;;;12.88;7.00;;;11.20;99.10;;;;;;10470493;28;20032;-61
2022/11/13 21:09:00;;;;;;;11.25;6.80;;;11.10;99.00;;;;;;10479546;28;20017;-60
2022/11/13 21:14:01;;;;;;;12.80;6.55;;;11.10;99.00;;;;;;10466835;28;20079;-61
2022/11/13 21:19:02;;;;;;;12.32;7.28;;;11.20;99.00;;;;;;10476280;28;20461;-60
2022/11/13 21:24:03;;;;;;;11.13;6.80;;;11.10;99.00;;;;;;10471112;28;20261;-59
2022/11/13 21:29:04;;;;;;;13.25;7.07;;;11.10;99.00;;;;;;10461919;28;20027;-60
2022/11/13 21:34:04;;;;;;;13.30;7.60;;;11.10;99.00;;;;;;10467925;28;20041;-60
2022/11/13 21:39:05;;;;;;;15.52;7.68;;;11.00;99.00;;;;;;10458370;28;20446;-62
2022/11/13 21:44:09;;;;;;;11.82;7.15;;;11.00;99.00;;;;;;10463910;28;20021;-60
2022/11/13 21:49:12;;;;;;;14.15;7.80;;;11.00;99.00;;;;;;10463174;28;20052;-60
2022/11/13 21:54:12;;;;;;;16.33;8.48;;;11.00;99.00;;;;;;10453573;28;20041;-62
2022/11/13 21:59:14;;;;;;;15.40;8.02;;;11.00;99.00;;;;;;10448165;28;20024;-61
2022/11/13 22:04:14;;;;;;;17.80;9.55;;;11.00;99.10;;;;;;10446658;28;20031;-60
2022/11/13 22:09:22;;;;;;;16.95;8.85;;;11.00;99.00;;;;;;10444212;28;20017;-60
2022/11/13 22:14:23;;;;;;;14.52;8.38;;;10.90;99.00;;;;;;10470275;28;20039;-59
2022/11/13 22:19:24;;;;;;;16.63;8.90;;;10.90;99.00;;;;;;10478789;28;20033;-59
2022/11/13 22:24:24;;;;;;;17.38;9.48;;;10.90;98.90;;;;;;10455410;28;20045;-60
2022/11/13 22:29:25;;;;;;;18.15;9.20;;;10.90;98.90;;;;;;10443193;28;20029;-60
2022/11/13 22:34:27;;;;;;;17.60;9.40;;;10.90;98.90;;;;;;10452214;28;20391;-60
2022/11/13 22:39:28;;;;;;;19.63;9.93;;;10.80;98.90;;;;;;10452137;28;20025;-60
2022/11/13 22:44:29;;;;;;;21.35;10.32;;;10.80;98.90;;;;;;10448648;28;20029;-60
2022/11/13 22:49:29;;;;;;;18.08;9.95;;;10.80;98.90;;;;;;10454105;28;20051;-60
2022/11/13 22:54:30;;;;;;;18.63;9.13;;;10.80;98.90;;;;;;10455594;28;20060;-60
2022/11/13 22:59:31;;;;;;;19.15;9.70;;;10.80;98.90;;;;;;10444728;28;20021;-63
2022/11/13 23:04:31;;;;;;;19.13;9.10;;;10.70;98.80;;;;;;10443058;28;20245;-60
2022/11/13 23:09:32;;;;;;;18.88;9.90;;;10.70;98.80;;;;;;10444604;28;20326;-61
2022/11/13 23:14:33;;;;;;;17.38;9.15;;;10.70;98.80;;;;;;10447224;28;20033;-61
2022/11/13 23:19:33;;;;;;;17.50;9.30;;;10.70;98.80;;;;;;10443756;28;20128;-60
2022/11/13 23:24:34;;;;;;;17.77;9.73;;;10.70;98.80;;;;;;10430629;28;20390;-60
2022/11/13 23:29:35;;;;;;;17.13;9.43;;;10.70;98.80;;;;;;10444140;28;20558;-61
2022/11/13 23:34:35;;;;;;;18.40;9.63;;;10.70;98.80;;;;;;10443848;28;20149;-61
2022/11/13 23:39:36;;;;;;;17.33;8.98;;;10.70;98.80;;;;;;10451035;28;20021;-60
2022/11/13 23:44:37;;;;;;;19.38;10.07;;;10.70;98.80;;;;;;10435602;28;20017;-61
2022/11/13 23:49:37;;;;;;;18.48;9.57;;;10.70;98.80;;;;;;10447884;28;20036;-61
2022/11/13 23:54:38;;;;;;;20.08;9.43;;;10.60;98.80;;;;;;10415998;28;20060;-61
2022/11/13 23:59:39;;;;;;;17.17;9.25;;;10.60;98.70;;;;;;10422221;28;20034;-61
